Arroio Grande, Brazil
Current Conditions -  °F | °C
As of 7:00 PM on Monday 22 Dec 2014 (Local Time) from SBPK Reporting Station
Few Clouds Few Clouds  
Wind Chill: 73°   Ceiling: Unl
Heat Index: 73°   Visibility: 6mi
Dew Point: 45°   Wind: 9mph
Humidity: 36%   Direction: 200°SSW
Pressure: 30.03"   Gusts: NA
Location:  32.24°S, 53.09°W
Report Text: SBPK 222100Z 20008KT 9999 FEW040 23/07 Q1017
Loading
Personal Weather Stations






























Interactive Weather Map New forecast layout! Learn more

10-Day Weather Forecast

Advertisements
Track Severe Weather on mobile